sensor_id;sensor_type;location;lat;lon;timestamp;P1;durP1;ratioP1;P2;durP2;ratioP2
49824;SDS011;35714;55.708;37.478;2023-09-19T00:01:40;14.55;;;7.75;;
49824;SDS011;35714;55.708;37.478;2023-09-19T00:04:09;12.27;;;8.13;;
49824;SDS011;35714;55.708;37.478;2023-09-19T00:06:36;12.77;;;8.23;;
49824;SDS011;35714;55.708;37.478;2023-09-19T00:09:03;12.15;;;7.90;;
49824;SDS011;35714;55.708;37.478;2023-09-19T00:11:29;13.48;;;8.40;;
49824;SDS011;35714;55.708;37.478;2023-09-19T00:13:56;15.70;;;7.72;;
49824;SDS011;35714;55.708;37.478;2023-09-19T00:16:25;13.98;;;7.95;;
49824;SDS011;35714;55.708;37.478;2023-09-19T00:18:51;14.43;;;8.05;;
49824;SDS011;35714;55.708;37.478;2023-09-19T00:21:18;11.75;;;7.47;;
49824;SDS011;35714;55.708;37.478;2023-09-19T00:23:47;16.13;;;8.23;;
49824;SDS011;35714;55.708;37.478;2023-09-19T00:26:13;12.98;;;8.25;;
49824;SDS011;35714;55.708;37.478;2023-09-19T00:28:40;12.38;;;7.55;;
49824;SDS011;35714;55.708;37.478;2023-09-19T00:31:08;11.50;;;7.65;;
49824;SDS011;35714;55.708;37.478;2023-09-19T00:33:34;11.82;;;7.90;;
49824;SDS011;35714;55.708;37.478;2023-09-19T00:35:59;14.95;;;8.10;;
49824;SDS011;35714;55.708;37.478;2023-09-19T00:38:31;15.13;;;7.88;;
49824;SDS011;35714;55.708;37.478;2023-09-19T00:40:57;12.52;;;7.13;;
49824;SDS011;35714;55.708;37.478;2023-09-19T00:43:25;11.15;;;7.32;;
49824;SDS011;35714;55.708;37.478;2023-09-19T00:45:53;12.35;;;8.00;;
49824;SDS011;35714;55.708;37.478;2023-09-19T00:48:21;13.55;;;7.88;;
49824;SDS011;35714;55.708;37.478;2023-09-19T00:50:48;15.00;;;8.52;;
49824;SDS011;35714;55.708;37.478;2023-09-19T00:53:18;17.42;;;9.73;;
49824;SDS011;35714;55.708;37.478;2023-09-19T00:55:46;19.20;;;9.65;;
49824;SDS011;35714;55.708;37.478;2023-09-19T00:58:13;14.63;;;9.35;;
49824;SDS011;35714;55.708;37.478;2023-09-19T01:00:40;15.82;;;9.75;;
49824;SDS011;35714;55.708;37.478;2023-09-19T01:03:06;18.35;;;10.52;;
49824;SDS011;35714;55.708;37.478;2023-09-19T01:05:33;22.20;;;11.13;;
49824;SDS011;35714;55.708;37.478;2023-09-19T01:07:59;22.88;;;10.75;;
49824;SDS011;35714;55.708;37.478;2023-09-19T01:10:25;19.30;;;11.23;;
49824;SDS011;35714;55.708;37.478;2023-09-19T01:29:01;23.42;;;15.75;;
49824;SDS011;35714;55.708;37.478;2023-09-19T01:31:33;21.08;;;14.77;;
49824;SDS011;35714;55.708;37.478;2023-09-19T01:34:03;22.65;;;16.30;;
49824;SDS011;35714;55.708;37.478;2023-09-19T01:36:34;22.25;;;15.23;;
49824;SDS011;35714;55.708;37.478;2023-09-19T01:39:09;21.13;;;14.23;;
49824;SDS011;35714;55.708;37.478;2023-09-19T01:47:17;27.05;;;16.90;;
49824;SDS011;35714;55.708;37.478;2023-09-19T01:49:52;26.92;;;17.45;;
49824;SDS011;35714;55.708;37.478;2023-09-19T01:52:27;24.30;;;16.42;;
49824;SDS011;35714;55.708;37.478;2023-09-19T01:55:00;22.60;;;17.15;;
49824;SDS011;35714;55.708;37.478;2023-09-19T01:57:34;26.30;;;18.90;;
49824;SDS011;35714;55.708;37.478;2023-09-19T02:00:07;29.67;;;21.00;;
49824;SDS011;35714;55.708;37.478;2023-09-19T02:02:42;29.02;;;21.50;;
49824;SDS011;35714;55.708;37.478;2023-09-19T02:05:10;25.58;;;19.10;;
49824;SDS011;35714;55.708;37.478;2023-09-19T02:07:38;25.10;;;19.75;;
49824;SDS011;35714;55.708;37.478;2023-09-19T02:10:05;26.42;;;18.38;;
49824;SDS011;35714;55.708;37.478;2023-09-19T02:12:33;28.98;;;20.15;;
49824;SDS011;35714;55.708;37.478;2023-09-19T02:15:04;32.53;;;21.15;;
49824;SDS011;35714;55.708;37.478;2023-09-19T02:17:33;33.60;;;22.77;;
49824;SDS011;35714;55.708;37.478;2023-09-19T02:19:59;30.88;;;21.92;;
49824;SDS011;35714;55.708;37.478;2023-09-19T02:22:27;29.70;;;23.63;;
49824;SDS011;35714;55.708;37.478;2023-09-19T02:24:54;35.83;;;22.92;;
49824;SDS011;35714;55.708;37.478;2023-09-19T02:27:23;34.30;;;23.13;;
49824;SDS011;35714;55.708;37.478;2023-09-19T02:29:52;32.53;;;23.38;;
49824;SDS011;35714;55.708;37.478;2023-09-19T02:32:18;35.40;;;24.65;;
49824;SDS011;35714;55.708;37.478;2023-09-19T02:34:44;32.45;;;24.33;;
49824;SDS011;35714;55.708;37.478;2023-09-19T02:37:10;31.13;;;22.45;;
49824;SDS011;35714;55.708;37.478;2023-09-19T02:39:39;33.45;;;24.27;;
49824;SDS011;35714;55.708;37.478;2023-09-19T02:42:05;37.55;;;26.02;;
49824;SDS011;35714;55.708;37.478;2023-09-19T02:44:31;29.48;;;22.92;;
49824;SDS011;35714;55.708;37.478;2023-09-19T02:46:58;36.67;;;26.58;;
49824;SDS011;35714;55.708;37.478;2023-09-19T02:49:24;39.03;;;26.55;;
49824;SDS011;35714;55.708;37.478;2023-09-19T02:51:50;34.67;;;25.63;;
49824;SDS011;35714;55.708;37.478;2023-09-19T02:54:17;38.97;;;26.88;;
49824;SDS011;35714;55.708;37.478;2023-09-19T02:56:43;35.05;;;26.30;;
49824;SDS011;35714;55.708;37.478;2023-09-19T02:59:09;36.95;;;26.83;;
49824;SDS011;35714;55.708;37.478;2023-09-19T03:01:36;39.97;;;27.02;;
49824;SDS011;35714;55.708;37.478;2023-09-19T03:04:04;36.58;;;24.83;;
49824;SDS011;35714;55.708;37.478;2023-09-19T03:06:32;32.70;;;24.45;;
49824;SDS011;35714;55.708;37.478;2023-09-19T03:08:58;41.45;;;26.85;;
49824;SDS011;35714;55.708;37.478;2023-09-19T03:11:25;34.20;;;24.10;;
49824;SDS011;35714;55.708;37.478;2023-09-19T03:13:55;33.00;;;23.48;;
49824;SDS011;35714;55.708;37.478;2023-09-19T03:16:22;32.63;;;24.15;;
49824;SDS011;35714;55.708;37.478;2023-09-19T03:18:49;34.30;;;25.58;;
49824;SDS011;35714;55.708;37.478;2023-09-19T03:21:16;32.78;;;23.45;;
49824;SDS011;35714;55.708;37.478;2023-09-19T03:23:43;36.03;;;24.27;;
49824;SDS011;35714;55.708;37.478;2023-09-19T03:26:13;36.60;;;24.58;;
49824;SDS011;35714;55.708;37.478;2023-09-19T03:28:42;36.13;;;24.45;;
49824;SDS011;35714;55.708;37.478;2023-09-19T03:31:09;36.20;;;25.30;;
49824;SDS011;35714;55.708;37.478;2023-09-19T03:33:36;33.20;;;23.35;;
49824;SDS011;35714;55.708;37.478;2023-09-19T03:36:03;31.52;;;22.00;;
49824;SDS011;35714;55.708;37.478;2023-09-19T03:38:31;34.80;;;23.20;;
49824;SDS011;35714;55.708;37.478;2023-09-19T03:40:58;31.90;;;22.65;;
49824;SDS011;35714;55.708;37.478;2023-09-19T03:43:24;40.78;;;23.88;;
49824;SDS011;35714;55.708;37.478;2023-09-19T03:45:50;35.88;;;23.15;;
49824;SDS011;35714;55.708;37.478;2023-09-19T03:48:17;34.72;;;21.90;;
49824;SDS011;35714;55.708;37.478;2023-09-19T03:50:43;34.13;;;21.88;;
49824;SDS011;35714;55.708;37.478;2023-09-19T03:53:09;32.13;;;22.02;;
49824;SDS011;35714;55.708;37.478;2023-09-19T03:55:35;31.85;;;21.63;;
49824;SDS011;35714;55.708;37.478;2023-09-19T03:58:01;31.15;;;20.73;;
49824;SDS011;35714;55.708;37.478;2023-09-19T04:00:27;37.03;;;22.67;;
49824;SDS011;35714;55.708;37.478;2023-09-19T04:02:55;30.55;;;20.15;;
49824;SDS011;35714;55.708;37.478;2023-09-19T04:05:22;36.03;;;22.33;;
49824;SDS011;35714;55.708;37.478;2023-09-19T04:07:48;33.25;;;21.77;;
49824;SDS011;35714;55.708;37.478;2023-09-19T04:10:15;37.17;;;23.75;;
49824;SDS011;35714;55.708;37.478;2023-09-19T04:12:54;36.58;;;23.23;;
49824;SDS011;35714;55.708;37.478;2023-09-19T04:15:22;40.20;;;22.90;;
49824;SDS011;35714;55.708;37.478;2023-09-19T04:17:50;39.00;;;23.50;;
49824;SDS011;35714;55.708;37.478;2023-09-19T04:20:19;35.03;;;22.67;;
49824;SDS011;35714;55.708;37.478;2023-09-19T04:22:45;48.97;;;25.27;;
49824;SDS011;35714;55.708;37.478;2023-09-19T04:25:12;41.72;;;24.45;;
49824;SDS011;35714;55.708;37.478;2023-09-19T04:27:38;48.78;;;25.30;;
49824;SDS011;35714;55.708;37.478;2023-09-19T04:30:04;51.75;;;25.55;;
49824;SDS011;35714;55.708;37.478;2023-09-19T04:32:35;45.90;;;24.85;;
49824;SDS011;35714;55.708;37.478;2023-09-19T04:35:08;42.63;;;23.98;;
49824;SDS011;35714;55.708;37.478;2023-09-19T04:37:38;41.63;;;22.35;;
49824;SDS011;35714;55.708;37.478;2023-09-19T04:40:06;42.80;;;22.88;;
49824;SDS011;35714;55.708;37.478;2023-09-19T04:42:39;36.38;;;21.85;;
49824;SDS011;35714;55.708;37.478;2023-09-19T04:45:06;38.03;;;22.15;;
49824;SDS011;35714;55.708;37.478;2023-09-19T04:47:32;35.80;;;20.70;;
49824;SDS011;35714;55.708;37.478;2023-09-19T04:49:58;40.92;;;23.65;;
49824;SDS011;35714;55.708;37.478;2023-09-19T04:52:24;41.60;;;22.02;;
49824;SDS011;35714;55.708;37.478;2023-09-19T04:54:50;38.75;;;21.85;;
49824;SDS011;35714;55.708;37.478;2023-09-19T04:57:16;37.15;;;20.52;;
49824;SDS011;35714;55.708;37.478;2023-09-19T04:59:41;42.22;;;20.95;;
49824;SDS011;35714;55.708;37.478;2023-09-19T05:02:07;36.03;;;19.00;;
49824;SDS011;35714;55.708;37.478;2023-09-19T05:04:37;30.38;;;18.35;;
49824;SDS011;35714;55.708;37.478;2023-09-19T05:07:04;29.48;;;16.92;;
49824;SDS011;35714;55.708;37.478;2023-09-19T05:09:29;30.15;;;17.73;;
49824;SDS011;35714;55.708;37.478;2023-09-19T05:11:55;27.88;;;16.88;;
49824;SDS011;35714;55.708;37.478;2023-09-19T05:14:22;24.75;;;16.00;;
49824;SDS011;35714;55.708;37.478;2023-09-19T05:16:48;27.58;;;15.25;;
49824;SDS011;35714;55.708;37.478;2023-09-19T05:19:13;26.75;;;15.75;;
49824;SDS011;35714;55.708;37.478;2023-09-19T05:21:39;22.50;;;15.02;;
49824;SDS011;35714;55.708;37.478;2023-09-19T05:24:05;24.88;;;14.93;;
49824;SDS011;35714;55.708;37.478;2023-09-19T05:26:33;20.67;;;14.93;;
49824;SDS011;35714;55.708;37.478;2023-09-19T05:28:59;20.17;;;14.40;;
49824;SDS011;35714;55.708;37.478;2023-09-19T05:31:26;22.10;;;15.13;;
49824;SDS011;35714;55.708;37.478;2023-09-19T05:33:53;29.42;;;15.27;;
49824;SDS011;35714;55.708;37.478;2023-09-19T05:36:20;21.23;;;14.23;;
49824;SDS011;35714;55.708;37.478;2023-09-19T05:38:46;22.98;;;14.27;;
49824;SDS011;35714;55.708;37.478;2023-09-19T05:41:15;19.95;;;12.82;;
49824;SDS011;35714;55.708;37.478;2023-09-19T05:43:41;19.67;;;13.27;;
49824;SDS011;35714;55.708;37.478;2023-09-19T05:46:07;26.60;;;14.50;;
49824;SDS011;35714;55.708;37.478;2023-09-19T05:48:33;20.48;;;12.65;;
49824;SDS011;35714;55.708;37.478;2023-09-19T05:50:59;26.35;;;15.48;;
49824;SDS011;35714;55.708;37.478;2023-09-19T05:53:26;20.25;;;14.48;;
49824;SDS011;35714;55.708;37.478;2023-09-19T05:55:52;21.33;;;13.90;;
49824;SDS011;35714;55.708;37.478;2023-09-19T05:58:19;19.30;;;14.07;;
49824;SDS011;35714;55.708;37.478;2023-09-19T06:00:45;21.90;;;13.60;;
49824;SDS011;35714;55.708;37.478;2023-09-19T06:03:13;21.05;;;12.55;;
49824;SDS011;35714;55.708;37.478;2023-09-19T06:05:39;18.23;;;12.30;;
49824;SDS011;35714;55.708;37.478;2023-09-19T06:08:08;20.15;;;12.32;;
49824;SDS011;35714;55.708;37.478;2023-09-19T06:10:34;16.10;;;11.80;;
49824;SDS011;35714;55.708;37.478;2023-09-19T06:13:03;19.98;;;12.55;;
49824;SDS011;35714;55.708;37.478;2023-09-19T06:15:30;19.85;;;13.10;;
49824;SDS011;35714;55.708;37.478;2023-09-19T06:17:58;15.30;;;10.70;;
49824;SDS011;35714;55.708;37.478;2023-09-19T06:20:30;17.77;;;11.20;;
49824;SDS011;35714;55.708;37.478;2023-09-19T06:22:56;18.92;;;11.52;;
49824;SDS011;35714;55.708;37.478;2023-09-19T06:25:22;16.73;;;11.05;;
49824;SDS011;35714;55.708;37.478;2023-09-19T06:27:49;16.10;;;10.43;;
49824;SDS011;35714;55.708;37.478;2023-09-19T06:30:18;17.80;;;11.02;;
49824;SDS011;35714;55.708;37.478;2023-09-19T06:32:44;15.35;;;10.10;;
49824;SDS011;35714;55.708;37.478;2023-09-19T06:35:10;17.17;;;11.48;;
49824;SDS011;35714;55.708;37.478;2023-09-19T06:37:37;17.52;;;10.55;;
49824;SDS011;35714;55.708;37.478;2023-09-19T06:40:10;18.58;;;11.15;;
49824;SDS011;35714;55.708;37.478;2023-09-19T06:42:44;16.05;;;10.45;;
49824;SDS011;35714;55.708;37.478;2023-09-19T06:45:11;14.18;;;10.05;;
49824;SDS011;35714;55.708;37.478;2023-09-19T06:47:39;16.13;;;11.13;;
49824;SDS011;35714;55.708;37.478;2023-09-19T06:50:05;18.05;;;10.48;;
49824;SDS011;35714;55.708;37.478;2023-09-19T06:52:34;16.55;;;10.48;;
49824;SDS011;35714;55.708;37.478;2023-09-19T06:55:00;20.15;;;10.50;;
49824;SDS011;35714;55.708;37.478;2023-09-19T06:57:29;16.02;;;10.30;;
49824;SDS011;35714;55.708;37.478;2023-09-19T06:59:56;20.35;;;10.77;;
49824;SDS011;35714;55.708;37.478;2023-09-19T07:02:22;16.05;;;10.13;;
49824;SDS011;35714;55.708;37.478;2023-09-19T07:04:47;16.77;;;10.48;;
49824;SDS011;35714;55.708;37.478;2023-09-19T07:07:13;17.50;;;10.63;;
49824;SDS011;35714;55.708;37.478;2023-09-19T07:09:39;19.52;;;11.25;;
49824;SDS011;35714;55.708;37.478;2023-09-19T07:12:05;18.08;;;10.95;;
49824;SDS011;35714;55.708;37.478;2023-09-19T07:14:31;19.02;;;11.20;;
49824;SDS011;35714;55.708;37.478;2023-09-19T07:16:57;15.80;;;11.65;;
49824;SDS011;35714;55.708;37.478;2023-09-19T07:19:25;17.52;;;10.85;;
49824;SDS011;35714;55.708;37.478;2023-09-19T07:21:53;16.95;;;11.18;;
49824;SDS011;35714;55.708;37.478;2023-09-19T07:24:19;14.27;;;10.55;;
49824;SDS011;35714;55.708;37.478;2023-09-19T07:26:47;19.27;;;10.52;;
49824;SDS011;35714;55.708;37.478;2023-09-19T07:29:13;17.02;;;10.57;;
49824;SDS011;35714;55.708;37.478;2023-09-19T07:31:39;15.15;;;11.00;;
49824;SDS011;35714;55.708;37.478;2023-09-19T07:34:05;15.07;;;10.82;;
49824;SDS011;35714;55.708;37.478;2023-09-19T07:36:30;15.13;;;11.13;;
49824;SDS011;35714;55.708;37.478;2023-09-19T07:38:57;17.80;;;11.25;;
49824;SDS011;35714;55.708;37.478;2023-09-19T07:41:23;16.08;;;11.73;;
49824;SDS011;35714;55.708;37.478;2023-09-19T07:43:49;18.13;;;10.20;;
49824;SDS011;35714;55.708;37.478;2023-09-19T07:46:15;19.70;;;12.65;;
49824;SDS011;35714;55.708;37.478;2023-09-19T07:48:40;17.55;;;11.48;;
49824;SDS011;35714;55.708;37.478;2023-09-19T07:51:13;19.38;;;12.23;;
49824;SDS011;35714;55.708;37.478;2023-09-19T07:53:41;15.05;;;11.52;;
49824;SDS011;35714;55.708;37.478;2023-09-19T07:56:08;18.02;;;11.25;;
49824;SDS011;35714;55.708;37.478;2023-09-19T07:58:35;17.25;;;11.65;;
49824;SDS011;35714;55.708;37.478;2023-09-19T08:01:06;16.48;;;11.65;;
49824;SDS011;35714;55.708;37.478;2023-09-19T08:03:36;18.15;;;12.38;;
49824;SDS011;35714;55.708;37.478;2023-09-19T08:06:11;19.25;;;12.02;;
49824;SDS011;35714;55.708;37.478;2023-09-19T08:08:37;14.65;;;10.40;;
49824;SDS011;35714;55.708;37.478;2023-09-19T08:11:03;18.58;;;10.70;;
49824;SDS011;35714;55.708;37.478;2023-09-19T08:16:08;17.60;;;11.68;;
49824;SDS011;35714;55.708;37.478;2023-09-19T08:18:37;17.25;;;10.27;;
49824;SDS011;35714;55.708;37.478;2023-09-19T08:21:05;15.85;;;9.57;;
49824;SDS011;35714;55.708;37.478;2023-09-19T08:23:37;16.67;;;11.90;;
49824;SDS011;35714;55.708;37.478;2023-09-19T08:26:04;16.02;;;10.70;;
49824;SDS011;35714;55.708;37.478;2023-09-19T08:28:34;15.40;;;11.25;;
49824;SDS011;35714;55.708;37.478;2023-09-19T08:31:04;15.02;;;10.10;;
49824;SDS011;35714;55.708;37.478;2023-09-19T08:33:31;16.00;;;10.57;;
49824;SDS011;35714;55.708;37.478;2023-09-19T08:36:03;14.27;;;10.05;;
49824;SDS011;35714;55.708;37.478;2023-09-19T08:38:33;16.92;;;11.48;;
49824;SDS011;35714;55.708;37.478;2023-09-19T08:41:00;20.38;;;10.68;;
49824;SDS011;35714;55.708;37.478;2023-09-19T08:43:30;16.00;;;10.07;;
49824;SDS011;35714;55.708;37.478;2023-09-19T08:46:02;20.83;;;11.55;;
49824;SDS011;35714;55.708;37.478;2023-09-19T08:48:34;19.88;;;11.93;;
49824;SDS011;35714;55.708;37.478;2023-09-19T08:51:27;20.88;;;11.60;;
49824;SDS011;35714;55.708;37.478;2023-09-19T08:56:36;26.73;;;11.57;;
49824;SDS011;35714;55.708;37.478;2023-09-19T08:59:05;17.40;;;10.90;;
49824;SDS011;35714;55.708;37.478;2023-09-19T09:01:37;17.23;;;12.23;;
49824;SDS011;35714;55.708;37.478;2023-09-19T09:04:05;17.88;;;12.68;;
49824;SDS011;35714;55.708;37.478;2023-09-19T09:06:38;20.25;;;11.95;;
49824;SDS011;35714;55.708;37.478;2023-09-19T09:09:06;22.05;;;12.23;;
49824;SDS011;35714;55.708;37.478;2023-09-19T09:11:33;16.75;;;11.70;;
49824;SDS011;35714;55.708;37.478;2023-09-19T09:13:59;14.90;;;10.00;;
49824;SDS011;35714;55.708;37.478;2023-09-19T09:16:24;12.55;;;8.82;;
49824;SDS011;35714;55.708;37.478;2023-09-19T09:18:51;14.75;;;9.65;;
49824;SDS011;35714;55.708;37.478;2023-09-19T09:21:20;16.23;;;10.43;;
49824;SDS011;35714;55.708;37.478;2023-09-19T09:23:51;18.42;;;11.10;;
49824;SDS011;35714;55.708;37.478;2023-09-19T09:29:02;17.23;;;11.43;;
49824;SDS011;35714;55.708;37.478;2023-09-19T09:31:27;21.33;;;10.10;;
49824;SDS011;35714;55.708;37.478;2023-09-19T09:33:54;19.45;;;9.02;;
49824;SDS011;35714;55.708;37.478;2023-09-19T09:36:36;14.30;;;8.27;;
49824;SDS011;35714;55.708;37.478;2023-09-19T09:39:04;14.90;;;9.52;;
49824;SDS011;35714;55.708;37.478;2023-09-19T09:41:50;12.98;;;10.35;;
49824;SDS011;35714;55.708;37.478;2023-09-19T09:44:17;18.77;;;11.73;;
49824;SDS011;35714;55.708;37.478;2023-09-19T09:46:45;22.98;;;10.70;;
49824;SDS011;35714;55.708;37.478;2023-09-19T09:49:18;14.85;;;9.50;;
49824;SDS011;35714;55.708;37.478;2023-09-19T09:51:58;14.93;;;10.02;;
49824;SDS011;35714;55.708;37.478;2023-09-19T09:54:25;13.17;;;8.70;;
49824;SDS011;35714;55.708;37.478;2023-09-19T09:57:02;15.85;;;9.70;;
49824;SDS011;35714;55.708;37.478;2023-09-19T09:59:45;21.33;;;9.93;;
49824;SDS011;35714;55.708;37.478;2023-09-19T10:02:12;13.77;;;8.40;;
49824;SDS011;35714;55.708;37.478;2023-09-19T10:04:39;13.13;;;8.73;;
49824;SDS011;35714;55.708;37.478;2023-09-19T10:07:26;17.17;;;7.72;;
49824;SDS011;35714;55.708;37.478;2023-09-19T10:09:58;14.40;;;7.32;;
49824;SDS011;35714;55.708;37.478;2023-09-19T10:12:36;9.88;;;7.05;;
49824;SDS011;35714;55.708;37.478;2023-09-19T10:15:07;13.48;;;7.97;;
49824;SDS011;35714;55.708;37.478;2023-09-19T10:17:36;14.18;;;8.60;;
49824;SDS011;35714;55.708;37.478;2023-09-19T10:20:08;9.65;;;6.38;;
49824;SDS011;35714;55.708;37.478;2023-09-19T10:22:48;12.57;;;7.72;;
49824;SDS011;35714;55.708;37.478;2023-09-19T10:25:24;12.55;;;8.32;;
49824;SDS011;35714;55.708;37.478;2023-09-19T10:27:51;11.80;;;7.55;;
49824;SDS011;35714;55.708;37.478;2023-09-19T10:30:19;12.18;;;7.50;;
49824;SDS011;35714;55.708;37.478;2023-09-19T10:32:45;14.55;;;8.50;;
49824;SDS011;35714;55.708;37.478;2023-09-19T10:35:18;12.43;;;7.75;;
49824;SDS011;35714;55.708;37.478;2023-09-19T10:37:45;13.63;;;8.73;;
49824;SDS011;35714;55.708;37.478;2023-09-19T10:40:15;11.32;;;6.63;;
49824;SDS011;35714;55.708;37.478;2023-09-19T10:42:42;12.32;;;7.03;;
49824;SDS011;35714;55.708;37.478;2023-09-19T10:45:09;11.90;;;7.18;;
49824;SDS011;35714;55.708;37.478;2023-09-19T10:47:39;13.10;;;8.75;;
49824;SDS011;35714;55.708;37.478;2023-09-19T10:50:06;14.32;;;8.20;;
49824;SDS011;35714;55.708;37.478;2023-09-19T10:52:39;10.38;;;6.70;;
49824;SDS011;35714;55.708;37.478;2023-09-19T10:55:07;10.55;;;6.63;;
49824;SDS011;35714;55.708;37.478;2023-09-19T10:57:35;13.98;;;7.07;;
49824;SDS011;35714;55.708;37.478;2023-09-19T11:00:07;11.77;;;6.60;;
49824;SDS011;35714;55.708;37.478;2023-09-19T11:05:43;11.32;;;6.53;;
49824;SDS011;35714;55.708;37.478;2023-09-19T11:08:26;10.30;;;5.95;;
49824;SDS011;35714;55.708;37.478;2023-09-19T11:10:53;14.80;;;7.38;;
49824;SDS011;35714;55.708;37.478;2023-09-19T11:13:29;14.25;;;6.95;;
49824;SDS011;35714;55.708;37.478;2023-09-19T11:16:04;9.02;;;6.07;;
49824;SDS011;35714;55.708;37.478;2023-09-19T11:26:40;8.63;;;6.88;;
49824;SDS011;35714;55.708;37.478;2023-09-19T11:31:54;9.88;;;6.20;;
49824;SDS011;35714;55.708;37.478;2023-09-19T11:40:11;8.25;;;5.53;;
49824;SDS011;35714;55.708;37.478;2023-09-19T11:42:44;10.55;;;5.88;;
49824;SDS011;35714;55.708;37.478;2023-09-19T11:48:15;10.07;;;7.05;;
49824;SDS011;35714;55.708;37.478;2023-09-19T11:50:44;8.70;;;5.90;;
49824;SDS011;35714;55.708;37.478;2023-09-19T11:53:13;9.82;;;5.78;;
49824;SDS011;35714;55.708;37.478;2023-09-19T11:55:43;8.65;;;5.85;;
49824;SDS011;35714;55.708;37.478;2023-09-19T11:58:17;7.78;;;5.93;;
49824;SDS011;35714;55.708;37.478;2023-09-19T12:00:43;9.82;;;6.45;;
49824;SDS011;35714;55.708;37.478;2023-09-19T12:03:11;9.60;;;5.65;;
49824;SDS011;35714;55.708;37.478;2023-09-19T12:05:37;9.80;;;6.28;;
49824;SDS011;35714;55.708;37.478;2023-09-19T12:08:04;12.60;;;6.85;;
49824;SDS011;35714;55.708;37.478;2023-09-19T12:10:55;9.88;;;6.20;;
49824;SDS011;35714;55.708;37.478;2023-09-19T12:13:23;10.23;;;6.40;;
49824;SDS011;35714;55.708;37.478;2023-09-19T12:15:49;8.05;;;5.43;;
49824;SDS011;35714;55.708;37.478;2023-09-19T12:18:30;10.38;;;6.18;;
49824;SDS011;35714;55.708;37.478;2023-09-19T12:20:56;8.50;;;6.40;;
49824;SDS011;35714;55.708;37.478;2023-09-19T12:23:27;9.93;;;5.55;;
49824;SDS011;35714;55.708;37.478;2023-09-19T12:25:54;13.02;;;5.80;;
49824;SDS011;35714;55.708;37.478;2023-09-19T12:28:23;9.52;;;5.90;;
49824;SDS011;35714;55.708;37.478;2023-09-19T12:30:52;14.20;;;5.88;;
49824;SDS011;35714;55.708;37.478;2023-09-19T12:33:21;11.35;;;5.32;;
49824;SDS011;35714;55.708;37.478;2023-09-19T12:35:52;11.13;;;5.72;;
49824;SDS011;35714;55.708;37.478;2023-09-19T12:38:26;7.80;;;4.95;;
49824;SDS011;35714;55.708;37.478;2023-09-19T12:40:56;9.80;;;5.13;;
49824;SDS011;35714;55.708;37.478;2023-09-19T12:43:26;13.73;;;4.70;;
49824;SDS011;35714;55.708;37.478;2023-09-19T12:45:53;8.95;;;4.72;;
49824;SDS011;35714;55.708;37.478;2023-09-19T12:48:23;9.00;;;4.80;;
49824;SDS011;35714;55.708;37.478;2023-09-19T12:53:36;8.68;;;4.20;;
49824;SDS011;35714;55.708;37.478;2023-09-19T12:56:09;8.68;;;4.00;;
49824;SDS011;35714;55.708;37.478;2023-09-19T12:58:54;8.20;;;3.78;;
49824;SDS011;35714;55.708;37.478;2023-09-19T13:01:22;12.30;;;4.00;;
49824;SDS011;35714;55.708;37.478;2023-09-19T13:04:12;7.43;;;4.43;;
49824;SDS011;35714;55.708;37.478;2023-09-19T13:06:38;10.20;;;4.30;;
49824;SDS011;35714;55.708;37.478;2023-09-19T13:09:09;6.72;;;3.85;;
49824;SDS011;35714;55.708;37.478;2023-09-19T13:11:36;6.07;;;3.67;;
49824;SDS011;35714;55.708;37.478;2023-09-19T13:14:21;7.65;;;4.05;;
49824;SDS011;35714;55.708;37.478;2023-09-19T13:17:00;7.78;;;4.10;;
49824;SDS011;35714;55.708;37.478;2023-09-19T13:25:09;10.65;;;3.85;;
49824;SDS011;35714;55.708;37.478;2023-09-19T13:27:40;10.70;;;4.68;;
49824;SDS011;35714;55.708;37.478;2023-09-19T13:30:06;6.50;;;4.10;;
49824;SDS011;35714;55.708;37.478;2023-09-19T13:32:33;6.82;;;4.28;;
49824;SDS011;35714;55.708;37.478;2023-09-19T13:34:59;5.95;;;3.83;;
49824;SDS011;35714;55.708;37.478;2023-09-19T13:37:24;6.65;;;3.70;;
49824;SDS011;35714;55.708;37.478;2023-09-19T13:39:52;8.70;;;4.15;;
49824;SDS011;35714;55.708;37.478;2023-09-19T13:42:19;6.53;;;3.75;;
49824;SDS011;35714;55.708;37.478;2023-09-19T13:44:47;7.32;;;4.03;;
49824;SDS011;35714;55.708;37.478;2023-09-19T13:47:13;10.25;;;4.57;;
49824;SDS011;35714;55.708;37.478;2023-09-19T13:49:40;7.78;;;4.78;;
49824;SDS011;35714;55.708;37.478;2023-09-19T13:52:07;8.43;;;4.72;;
49824;SDS011;35714;55.708;37.478;2023-09-19T13:54:34;9.07;;;4.70;;
49824;SDS011;35714;55.708;37.478;2023-09-19T13:56:59;9.77;;;4.60;;
49824;SDS011;35714;55.708;37.478;2023-09-19T13:59:26;9.38;;;4.97;;
49824;SDS011;35714;55.708;37.478;2023-09-19T14:01:54;9.75;;;5.50;;
49824;SDS011;35714;55.708;37.478;2023-09-19T14:04:20;12.43;;;5.57;;
49824;SDS011;35714;55.708;37.478;2023-09-19T14:06:47;14.25;;;5.53;;
49824;SDS011;35714;55.708;37.478;2023-09-19T14:09:13;11.02;;;6.10;;
49824;SDS011;35714;55.708;37.478;2023-09-19T14:11:39;8.73;;;5.13;;
49824;SDS011;35714;55.708;37.478;2023-09-19T14:14:07;9.30;;;5.00;;
49824;SDS011;35714;55.708;37.478;2023-09-19T14:16:33;8.50;;;6.05;;
49824;SDS011;35714;55.708;37.478;2023-09-19T14:18:59;10.48;;;6.28;;
49824;SDS011;35714;55.708;37.478;2023-09-19T14:21:25;9.85;;;6.57;;
49824;SDS011;35714;55.708;37.478;2023-09-19T14:23:51;12.07;;;5.88;;
49824;SDS011;35714;55.708;37.478;2023-09-19T14:26:19;11.57;;;5.28;;
49824;SDS011;35714;55.708;37.478;2023-09-19T14:28:45;16.55;;;6.38;;
49824;SDS011;35714;55.708;37.478;2023-09-19T14:31:11;9.25;;;6.38;;
49824;SDS011;35714;55.708;37.478;2023-09-19T14:33:37;10.40;;;5.57;;
49824;SDS011;35714;55.708;37.478;2023-09-19T14:36:03;11.23;;;5.93;;
49824;SDS011;35714;55.708;37.478;2023-09-19T14:38:35;11.70;;;6.25;;
49824;SDS011;35714;55.708;37.478;2023-09-19T14:41:02;12.57;;;6.03;;
49824;SDS011;35714;55.708;37.478;2023-09-19T14:43:29;8.85;;;5.82;;
49824;SDS011;35714;55.708;37.478;2023-09-19T14:45:56;13.55;;;5.75;;
49824;SDS011;35714;55.708;37.478;2023-09-19T14:48:23;13.15;;;6.65;;
49824;SDS011;35714;55.708;37.478;2023-09-19T14:50:51;13.85;;;5.72;;
49824;SDS011;35714;55.708;37.478;2023-09-19T14:53:18;11.23;;;6.65;;
49824;SDS011;35714;55.708;37.478;2023-09-19T14:55:44;13.13;;;6.38;;
49824;SDS011;35714;55.708;37.478;2023-09-19T14:58:13;10.20;;;6.10;;
49824;SDS011;35714;55.708;37.478;2023-09-19T15:00:39;14.20;;;5.47;;
49824;SDS011;35714;55.708;37.478;2023-09-19T15:03:05;10.13;;;4.95;;
49824;SDS011;35714;55.708;37.478;2023-09-19T15:05:31;16.35;;;6.05;;
49824;SDS011;35714;55.708;37.478;2023-09-19T15:07:56;14.80;;;6.05;;
49824;SDS011;35714;55.708;37.478;2023-09-19T15:10:23;14.43;;;5.05;;
49824;SDS011;35714;55.708;37.478;2023-09-19T15:12:49;16.30;;;6.65;;
49824;SDS011;35714;55.708;37.478;2023-09-19T15:15:16;10.25;;;5.53;;
49824;SDS011;35714;55.708;37.478;2023-09-19T15:17:42;14.70;;;6.75;;
49824;SDS011;35714;55.708;37.478;2023-09-19T15:20:08;14.73;;;5.82;;
49824;SDS011;35714;55.708;37.478;2023-09-19T15:22:34;12.23;;;5.20;;
49824;SDS011;35714;55.708;37.478;2023-09-19T15:25:02;11.73;;;5.45;;